Time;durP1;ratioP1;P1;durP2;ratioP2;P2;SDS_P1;SDS_P2;PMS_P1;PMS_P2;Temp;Humidity;BMP_temperature;BMP_pressure;BME280_temperature;BME280_humidity;BME280_pressure;Samples;Min_cycle;Max_cycle;Signal;HPM_P1;HPM_P2
2021/01/01 00:02:00;;;;;;;29.15;17.13;;;3.00;76.00;;;;;;4979060;28;20432;-67
2021/01/01 00:04:26;;;;;;;28.77;17.30;;;3.00;76.10;;;;;;4980032;28;20026;-69
2021/01/01 00:06:51;;;;;;;25.95;16.13;;;3.00;76.20;;;;;;4978425;28;20027;-66
2021/01/01 00:09:18;;;;;;;25.80;15.07;;;3.00;76.30;;;;;;4978648;28;20539;-67
2021/01/01 00:11:50;;;;;;;31.40;19.13;;;3.00;76.30;;;;;;4979062;28;20250;-67
2021/01/01 00:14:17;;;;;;;34.70;20.50;;;2.90;76.40;;;;;;4978952;28;20042;-68
2021/01/01 00:16:44;;;;;;;32.08;19.65;;;2.90;76.30;;;;;;4979767;28;20412;-67
2021/01/01 00:19:11;;;;;;;53.88;30.40;;;2.90;76.30;;;;;;4980530;28;20027;-68
2021/01/01 00:21:37;;;;;;;54.95;29.80;;;2.90;76.20;;;;;;4978934;28;20278;-67
2021/01/01 00:24:02;;;;;;;54.00;31.33;;;2.90;76.10;;;;;;4981512;28;20039;-67
2021/01/01 00:26:28;;;;;;;45.75;27.45;;;2.90;76.10;;;;;;4978094;28;20122;-66
2021/01/01 00:28:54;;;;;;;44.75;25.85;;;2.80;76.20;;;;;;4977504;28;20597;-67
2021/01/01 00:31:22;;;;;;;33.78;21.05;;;2.80;76.40;;;;;;4979830;28;20031;-68
2021/01/01 00:33:48;;;;;;;37.45;22.50;;;2.80;76.60;;;;;;4978685;28;20089;-68
2021/01/01 00:36:14;;;;;;;36.03;21.88;;;2.70;76.70;;;;;;4977963;28;20039;-67
2021/01/01 00:38:46;;;;;;;35.35;20.10;;;2.70;76.70;;;;;;4978423;28;20571;-67
2021/01/01 00:41:19;;;;;;;31.17;19.77;;;2.70;76.60;;;;;;4979662;28;20022;-64
2021/01/01 00:43:44;;;;;;;35.63;21.05;;;2.70;76.40;;;;;;4979884;28;20074;-64
2021/01/01 00:46:10;;;;;;;33.55;19.48;;;2.70;76.40;;;;;;4978466;28;20050;-66
2021/01/01 00:48:35;;;;;;;31.00;19.30;;;2.70;76.30;;;;;;4979472;28;20064;-66
2021/01/01 00:51:01;;;;;;;31.27;18.60;;;2.60;76.20;;;;;;4977834;28;20052;-66
2021/01/01 00:53:27;;;;;;;32.80;18.45;;;2.60;76.20;;;;;;4979849;28;20350;-66
2021/01/01 00:55:52;;;;;;;27.58;17.55;;;2.60;76.30;;;;;;4977713;28;20104;-65
2021/01/01 00:58:18;;;;;;;26.80;17.58;;;2.60;76.40;;;;;;4979758;28;20069;-66
2021/01/01 01:00:44;;;;;;;27.38;17.10;;;2.70;76.40;;;;;;4978121;28;20062;-66
2021/01/01 01:03:09;;;;;;;23.42;14.00;;;2.70;76.40;;;;;;4980442;28;20037;-67
2021/01/01 01:05:35;;;;;;;21.88;14.13;;;2.60;76.20;;;;;;4979377;28;20062;-66
2021/01/01 01:08:01;;;;;;;26.10;15.40;;;2.70;76.10;;;;;;4980867;28;20042;-67
2021/01/01 01:10:26;;;;;;;28.05;17.25;;;2.60;76.00;;;;;;4979212;28;20037;-67
2021/01/01 01:12:52;;;;;;;40.13;22.02;;;2.60;76.00;;;;;;4978815;28;20034;-66
2021/01/01 01:15:18;;;;;;;47.72;23.65;;;2.60;76.20;;;;;;4979765;28;20029;-67
2021/01/01 01:17:43;;;;;;;39.95;21.17;;;2.60;76.20;;;;;;4979646;28;20049;-66
2021/01/01 01:20:09;;;;;;;41.92;21.67;;;2.50;76.00;;;;;;4979765;28;20149;-66
2021/01/01 01:22:35;;;;;;;35.05;19.08;;;2.50;76.00;;;;;;4979240;28;20217;-66
2021/01/01 01:25:01;;;;;;;32.42;17.63;;;2.40;76.30;;;;;;4979987;28;20022;-64
2021/01/01 01:27:26;;;;;;;28.45;16.35;;;2.40;76.60;;;;;;4979716;28;20390;-65
2021/01/01 01:29:52;;;;;;;27.40;15.52;;;2.40;76.70;;;;;;4979369;28;20026;-67
2021/01/01 01:32:18;;;;;;;28.30;16.13;;;2.30;76.90;;;;;;4980176;28;20081;-65
2021/01/01 01:34:43;;;;;;;26.15;16.05;;;2.30;77.10;;;;;;4979309;28;20038;-66
2021/01/01 01:37:09;;;;;;;27.92;16.27;;;2.30;77.40;;;;;;4979603;28;20046;-65
2021/01/01 01:39:35;;;;;;;27.83;15.15;;;2.30;77.50;;;;;;4979372;28;20034;-66
2021/01/01 01:42:00;;;;;;;24.75;14.65;;;2.30;77.60;;;;;;4981265;28;20118;-65
2021/01/01 01:44:26;;;;;;;25.40;15.88;;;2.30;77.70;;;;;;4979019;28;20371;-66
2021/01/01 01:46:52;;;;;;;26.20;15.60;;;2.30;77.80;;;;;;4978558;28;20039;-66
2021/01/01 01:49:19;;;;;;;27.63;15.77;;;2.30;77.90;;;;;;4978351;28;20121;-67
2021/01/01 01:51:49;;;;;;;27.20;15.85;;;2.40;78.00;;;;;;4978061;28;20499;-67
2021/01/01 01:54:17;;;;;;;27.98;15.23;;;2.40;78.10;;;;;;4978481;28;20038;-66
2021/01/01 01:56:44;;;;;;;25.77;15.35;;;2.50;78.00;;;;;;4977970;28;20043;-66
2021/01/01 01:59:13;;;;;;;24.83;15.48;;;2.50;78.00;;;;;;4979352;28;20609;-66
2021/01/01 02:01:39;;;;;;;23.83;14.50;;;2.50;78.00;;;;;;4980359;28;20047;-67
2021/01/01 02:04:05;;;;;;;24.73;14.82;;;2.50;78.00;;;;;;4979846;28;20043;-66
2021/01/01 02:06:30;;;;;;;23.60;13.98;;;2.60;78.10;;;;;;4978267;28;20041;-66
2021/01/01 02:08:56;;;;;;;23.98;14.68;;;2.60;78.00;;;;;;4978540;28;20049;-64
2021/01/01 02:11:22;;;;;;;22.63;14.30;;;2.70;78.10;;;;;;4980018;28;20058;-66
2021/01/01 02:13:51;;;;;;;24.92;14.48;;;2.70;78.00;;;;;;4979239;28;20502;-66
2021/01/01 02:16:19;;;;;;;20.75;13.40;;;2.70;78.00;;;;;;4979591;28;20045;-66
2021/01/01 02:18:45;;;;;;;25.17;14.18;;;2.70;77.80;;;;;;4980826;28;20121;-66
2021/01/01 02:21:16;;;;;;;22.13;13.70;;;2.70;77.70;;;;;;4983032;28;20114;-66
2021/01/01 02:23:42;;;;;;;22.63;14.13;;;2.70;77.80;;;;;;4981243;28;21039;-66
2021/01/01 02:26:08;;;;;;;24.15;13.52;;;2.70;77.70;;;;;;4984049;28;20126;-66
2021/01/01 02:28:34;;;;;;;20.50;13.02;;;2.70;77.60;;;;;;4983260;28;20117;-64
2021/01/01 02:30:59;;;;;;;24.20;14.20;;;2.70;77.60;;;;;;4983115;28;20027;-66
2021/01/01 02:33:25;;;;;;;25.88;15.57;;;2.70;77.70;;;;;;4982343;28;20031;-66
2021/01/01 02:35:51;;;;;;;23.70;13.85;;;2.70;77.80;;;;;;4981306;28;20126;-66
2021/01/01 02:38:17;;;;;;;19.33;12.38;;;2.70;77.80;;;;;;4981079;28;20390;-67
2021/01/01 02:40:43;;;;;;;22.65;14.02;;;2.70;77.80;;;;;;4981904;28;20451;-66
2021/01/01 02:43:08;;;;;;;24.63;14.77;;;2.70;77.90;;;;;;4982753;28;20061;-66
2021/01/01 02:45:34;;;;;;;24.65;14.75;;;2.80;78.00;;;;;;4981895;28;20027;-65
2021/01/01 02:48:13;;;;;;;25.65;15.05;;;2.80;78.00;;;;;;4982381;28;20036;-64
2021/01/01 02:50:39;;;;;;;22.70;14.80;;;2.80;78.20;;;;;;4981806;28;20110;-67
2021/01/01 02:53:05;;;;;;;25.65;15.45;;;2.80;78.10;;;;;;4982316;28;20130;-66
2021/01/01 02:55:31;;;;;;;26.23;15.73;;;2.80;78.20;;;;;;4981978;28;20557;-66
2021/01/01 02:58:01;;;;;;;26.92;16.13;;;2.90;78.30;;;;;;4980375;28;20022;-65
2021/01/01 03:00:27;;;;;;;27.35;16.05;;;2.90;78.50;;;;;;4981649;28;20038;-66
2021/01/01 03:02:54;;;;;;;24.77;15.25;;;2.90;78.40;;;;;;4982734;28;20053;-66
2021/01/01 03:05:20;;;;;;;25.73;15.02;;;2.90;78.50;;;;;;4982052;28;20033;-65
2021/01/01 03:07:45;;;;;;;25.63;15.43;;;2.90;78.60;;;;;;4980775;28;20031;-66
2021/01/01 03:10:11;;;;;;;24.55;14.85;;;2.90;79.50;;;;;;4982817;28;20049;-66
2021/01/01 03:12:37;;;;;;;22.80;14.55;;;2.90;78.80;;;;;;4981345;28;20870;-66
2021/01/01 03:15:07;;;;;;;25.17;15.50;;;3.00;78.90;;;;;;4980481;28;20066;-67
2021/01/01 03:17:32;;;;;;;24.77;14.30;;;3.00;78.90;;;;;;4981579;28;20514;-65
2021/01/01 03:19:58;;;;;;;31.67;19.40;;;3.00;78.80;;;;;;4982160;28;20038;-65
2021/01/01 03:22:24;;;;;;;32.85;18.95;;;3.00;78.70;;;;;;4981498;28;20033;-66
2021/01/01 03:24:49;;;;;;;32.78;19.42;;;3.00;78.80;;;;;;4981622;28;20062;-65
2021/01/01 03:27:15;;;;;;;27.02;16.08;;;3.10;78.80;;;;;;4987713;28;20146;-66
2021/01/01 03:29:41;;;;;;;28.10;16.73;;;3.10;78.80;;;;;;4980658;28;20437;-66
2021/01/01 03:32:06;;;;;;;30.23;17.83;;;3.10;78.80;;;;;;4982438;28;20035;-65
2021/01/01 03:34:32;;;;;;;29.65;17.75;;;3.10;78.90;;;;;;4981094;28;20504;-66
2021/01/01 03:36:57;;;;;;;28.05;16.55;;;3.10;78.80;;;;;;4981786;28;20035;-66
2021/01/01 03:39:23;;;;;;;25.48;15.75;;;3.10;78.80;;;;;;4981607;28;20034;-66
2021/01/01 03:41:49;;;;;;;29.67;16.88;;;3.10;78.80;;;;;;4980866;28;20154;-66
2021/01/01 03:44:15;;;;;;;26.00;16.20;;;3.20;78.80;;;;;;4981094;28;20453;-66
2021/01/01 03:46:40;;;;;;;27.70;16.58;;;3.20;78.70;;;;;;4980344;28;20505;-66
2021/01/01 03:49:06;;;;;;;27.90;16.55;;;3.20;78.80;;;;;;4981356;28;20027;-65
2021/01/01 03:51:31;;;;;;;27.02;16.20;;;3.20;78.80;;;;;;4981247;28;20034;-65
2021/01/01 03:53:57;;;;;;;27.08;16.80;;;3.20;78.80;;;;;;4980914;28;20065;-65
2021/01/01 03:56:22;;;;;;;26.98;16.58;;;3.30;78.80;;;;;;4981164;28;20030;-66
2021/01/01 03:58:48;;;;;;;28.45;17.33;;;3.30;78.70;;;;;;4980717;28;20034;-66
2021/01/01 04:01:17;;;;;;;23.55;15.85;;;3.30;78.60;;;;;;4981389;28;20034;-66
2021/01/01 04:03:43;;;;;;;29.67;17.40;;;3.30;78.70;;;;;;4979145;28;20081;-66
2021/01/01 04:06:09;;;;;;;25.90;16.42;;;3.30;78.60;;;;;;4981104;28;20406;-65
2021/01/01 04:08:35;;;;;;;25.65;15.90;;;3.30;78.60;;;;;;4980434;28;20042;-66
2021/01/01 04:11:01;;;;;;;22.90;14.13;;;3.30;78.60;;;;;;4980858;28;20698;-65
2021/01/01 04:13:26;;;;;;;24.75;15.77;;;3.30;78.60;;;;;;4980737;28;20046;-66
2021/01/01 04:15:52;;;;;;;24.33;15.25;;;3.30;78.60;;;;;;4979296;28;20031;-65
2021/01/01 04:18:17;;;;;;;25.95;16.63;;;3.30;78.50;;;;;;4980889;28;20058;-65
2021/01/01 04:20:43;;;;;;;31.25;17.92;;;3.30;78.30;;;;;;4979940;28;20122;-66
2021/01/01 04:23:09;;;;;;;30.33;17.40;;;3.20;78.20;;;;;;4981461;28;20561;-65
2021/01/01 04:25:35;;;;;;;30.55;17.90;;;3.20;78.10;;;;;;4980686;28;20697;-66
2021/01/01 04:28:00;;;;;;;30.70;18.58;;;3.20;78.20;;;;;;4980380;28;20047;-65
2021/01/01 04:30:26;;;;;;;28.27;17.38;;;3.20;78.40;;;;;;4979845;28;20643;-65
2021/01/01 04:32:52;;;;;;;30.08;16.60;;;3.10;79.20;;;;;;4980391;28;20557;-65
2021/01/01 04:35:17;;;;;;;28.63;16.50;;;3.10;78.40;;;;;;4980160;28;20035;-66
2021/01/01 04:37:43;;;;;;;26.58;15.88;;;3.00;78.30;;;;;;4979577;28;20035;-67
2021/01/01 04:40:09;;;;;;;27.48;15.93;;;3.00;78.50;;;;;;4979814;28;20061;-66
2021/01/01 04:42:36;;;;;;;28.20;16.08;;;2.90;78.60;;;;;;4979697;28;20108;-65
2021/01/01 04:45:04;;;;;;;27.15;16.15;;;2.90;78.90;;;;;;4978892;28;20038;-66
2021/01/01 04:47:31;;;;;;;28.40;16.25;;;2.90;79.30;;;;;;4980329;28;20080;-66
2021/01/01 04:50:02;;;;;;;41.90;21.02;;;2.90;79.60;;;;;;4979243;28;20034;-65
2021/01/01 04:52:33;;;;;;;66.28;30.10;;;2.90;79.60;;;;;;4979259;28;20038;-66
2021/01/01 04:55:00;;;;;;;97.72;42.08;;;2.90;79.70;;;;;;4979032;28;20034;-65
2021/01/01 04:57:26;;;;;;;66.50;31.70;;;3.00;79.70;;;;;;4979888;28;20084;-66
2021/01/01 04:59:52;;;;;;;47.22;24.20;;;3.00;79.80;;;;;;4978617;28;20035;-66
2021/01/01 05:02:18;;;;;;;32.30;17.85;;;3.00;79.70;;;;;;4980219;28;20022;-66
2021/01/01 05:04:48;;;;;;;31.67;17.42;;;3.00;79.80;;;;;;4980096;28;20058;-67
2021/01/01 05:07:20;;;;;;;26.85;14.90;;;3.10;79.90;;;;;;4980180;28;20509;-66
2021/01/01 05:09:47;;;;;;;25.38;15.23;;;3.10;79.90;;;;;;4978534;28;20478;-66
2021/01/01 05:12:14;;;;;;;27.80;14.73;;;3.10;79.60;;;;;;4978216;28;20117;-66
2021/01/01 05:14:41;;;;;;;26.77;15.20;;;3.20;79.70;;;;;;4979023;28;20045;-66
2021/01/01 05:17:07;;;;;;;23.55;14.75;;;3.20;79.60;;;;;;4979717;28;20057;-66
2021/01/01 05:19:41;;;;;;;25.20;14.20;;;3.20;79.60;;;;;;4979731;28;20081;-65
2021/01/01 05:22:11;;;;;;;23.10;14.47;;;3.20;79.70;;;;;;4979887;28;20033;-65
2021/01/01 05:24:43;;;;;;;23.35;14.35;;;3.30;79.60;;;;;;4979579;28;20026;-65
2021/01/01 05:27:11;;;;;;;22.90;13.32;;;3.30;79.70;;;;;;4980327;28;20069;-65
2021/01/01 05:29:57;;;;;;;22.77;13.50;;;3.30;79.60;;;;;;4979669;28;20027;-65
2021/01/01 05:32:25;;;;;;;22.85;13.95;;;3.30;79.70;;;;;;4979055;28;20035;-65
2021/01/01 05:34:51;;;;;;;23.85;14.38;;;3.40;79.60;;;;;;4980030;28;20066;-66
2021/01/01 05:37:30;;;;;;;22.67;13.55;;;3.40;79.50;;;;;;4979141;28;20034;-65
2021/01/01 05:40:11;;;;;;;21.33;12.82;;;3.50;79.80;;;;;;4980251;28;20034;-65
2021/01/01 05:42:37;;;;;;;24.40;13.60;;;3.50;79.80;;;;;;4977910;28;20026;-64
2021/01/01 05:45:13;;;;;;;21.75;13.02;;;3.50;79.50;;;;;;4978056;28;20041;-64
2021/01/01 05:47:39;;;;;;;22.50;13.95;;;3.50;79.70;;;;;;4979265;28;20641;-66
2021/01/01 05:50:05;;;;;;;21.67;12.73;;;3.50;79.50;;;;;;4978870;28;20121;-65
2021/01/01 05:52:31;;;;;;;21.75;13.93;;;3.50;79.50;;;;;;4979269;28;20045;-67
2021/01/01 05:55:03;;;;;;;20.55;13.02;;;3.60;79.50;;;;;;4983161;28;20042;-65
2021/01/01 05:57:39;;;;;;;21.77;13.18;;;3.60;79.60;;;;;;4983027;28;20517;-65
2021/01/01 06:00:07;;;;;;;21.85;13.77;;;3.60;79.50;;;;;;4983364;28;20514;-65
2021/01/01 06:02:37;;;;;;;27.00;16.48;;;3.60;79.30;;;;;;4982180;28;20038;-65
2021/01/01 06:05:08;;;;;;;26.30;15.95;;;3.60;79.30;;;;;;4983135;28;20572;-65
2021/01/01 06:07:37;;;;;;;25.08;14.55;;;3.70;79.30;;;;;;4983120;28;20045;-66
2021/01/01 06:10:07;;;;;;;24.27;15.02;;;3.70;79.30;;;;;;4983009;28;20030;-66
2021/01/01 06:12:35;;;;;;;29.80;16.35;;;3.70;79.30;;;;;;4985955;28;20031;-65
2021/01/01 06:15:02;;;;;;;24.73;15.70;;;3.70;79.30;;;;;;4966146;28;20512;-65
2021/01/01 06:17:58;;;;;;;24.58;15.10;;;3.70;80.00;;;;;;4982513;28;20105;-65
2021/01/01 06:20:23;;;;;;;21.67;13.85;;;3.70;79.30;;;;;;4981813;28;20109;-65
2021/01/01 06:23:18;;;;;;;22.50;13.55;;;3.70;79.00;;;;;;4982624;28;20129;-66
2021/01/01 06:25:44;;;;;;;21.92;13.52;;;3.70;79.50;;;;;;4983006;28;20424;-65
2021/01/01 06:28:15;;;;;;;20.25;13.27;;;3.70;79.10;;;;;;4983346;28;20053;-65
2021/01/01 06:30:40;;;;;;;18.90;12.50;;;3.70;79.30;;;;;;4981053;28;20058;-65
2021/01/01 06:33:07;;;;;;;19.40;12.45;;;3.70;79.30;;;;;;4983251;28;20506;-66
2021/01/01 06:35:42;;;;;;;17.85;11.90;;;3.70;79.30;;;;;;4983176;28;20596;-65
2021/01/01 06:38:08;;;;;;;21.05;13.05;;;3.70;79.50;;;;;;4982214;28;20034;-66
2021/01/01 06:40:35;;;;;;;20.70;12.85;;;3.70;79.30;;;;;;4982015;28;20092;-65
2021/01/01 06:43:06;;;;;;;20.63;12.77;;;3.80;79.40;;;;;;4982414;28;20069;-65
2021/01/01 06:45:42;;;;;;;18.60;12.10;;;3.80;79.50;;;;;;4981431;28;20031;-65
2021/01/01 06:48:11;;;;;;;19.25;12.57;;;3.80;80.30;;;;;;4981704;28;20038;-65
2021/01/01 06:50:41;;;;;;;21.83;13.10;;;3.80;79.30;;;;;;4981501;28;20101;-66
2021/01/01 06:53:10;;;;;;;19.83;12.32;;;3.80;79.40;;;;;;4982201;28;20027;-65
2021/01/01 06:55:43;;;;;;;17.45;11.63;;;3.80;79.50;;;;;;4981968;28;20026;-65
2021/01/01 06:58:11;;;;;;;18.13;12.13;;;3.80;79.40;;;;;;4982240;28;20029;-65
2021/01/01 07:00:45;;;;;;;19.40;11.15;;;3.80;79.50;;;;;;4981568;28;20117;-65
2021/01/01 07:03:26;;;;;;;17.15;11.18;;;3.80;79.70;;;;;;4981882;28;20284;-65
2021/01/01 07:05:57;;;;;;;17.88;10.93;;;3.90;79.80;;;;;;4982554;28;20065;-64
2021/01/01 07:08:43;;;;;;;16.67;10.82;;;3.90;79.50;;;;;;4981871;28;20042;-65
2021/01/01 07:11:09;;;;;;;16.38;10.18;;;3.90;79.80;;;;;;4983075;28;20046;-66
2021/01/01 07:13:41;;;;;;;17.50;10.38;;;3.90;79.40;;;;;;4982369;28;20038;-65
2021/01/01 07:16:07;;;;;;;14.63;9.98;;;3.90;79.50;;;;;;4982962;28;20831;-65
2021/01/01 07:18:33;;;;;;;15.90;10.63;;;3.90;79.40;;;;;;4980813;28;20034;-65
2021/01/01 07:21:00;;;;;;;19.58;11.20;;;3.90;79.40;;;;;;4982438;28;20093;-65
2021/01/01 07:23:27;;;;;;;16.67;10.48;;;4.00;79.40;;;;;;4982551;28;20064;-66
2021/01/01 07:25:54;;;;;;;17.33;10.98;;;4.00;79.40;;;;;;4981107;28;20035;-64
2021/01/01 07:28:21;;;;;;;15.75;9.93;;;4.00;79.30;;;;;;4982330;28;20542;-65
2021/01/01 07:30:47;;;;;;;15.23;9.75;;;4.00;79.30;;;;;;4982173;28;20077;-65
2021/01/01 07:33:22;;;;;;;14.23;9.30;;;4.00;79.30;;;;;;4980632;28;20038;-65
2021/01/01 07:35:52;;;;;;;23.95;14.48;;;4.00;79.30;;;;;;4981841;28;20090;-65
2021/01/01 07:38:23;;;;;;;20.70;12.73;;;4.10;79.30;;;;;;4981307;28;20023;-66
2021/01/01 07:40:49;;;;;;;24.83;14.88;;;4.10;79.20;;;;;;4981178;28;20035;-65
2021/01/01 07:43:15;;;;;;;21.42;13.00;;;4.10;79.00;;;;;;4982553;28;20031;-65
2021/01/01 07:45:41;;;;;;;17.55;11.85;;;4.10;79.10;;;;;;4981453;28;20117;-66
2021/01/01 07:48:07;;;;;;;17.90;11.23;;;4.10;79.10;;;;;;4980347;28;20528;-66
2021/01/01 07:50:34;;;;;;;25.80;14.38;;;4.10;79.20;;;;;;4981495;28;20030;-65
2021/01/01 07:53:04;;;;;;;31.35;16.83;;;4.10;79.20;;;;;;4981910;28;20022;-65
2021/01/01 07:55:31;;;;;;;30.40;16.40;;;4.10;79.30;;;;;;4981271;28;20031;-65
2021/01/01 07:58:00;;;;;;;27.75;15.60;;;4.10;79.30;;;;;;4981184;28;20038;-66
2021/01/01 08:00:30;;;;;;;24.52;14.43;;;4.10;79.30;;;;;;4981456;28;20041;-65
2021/01/01 08:02:56;;;;;;;31.75;17.55;;;4.10;79.30;;;;;;4972421;28;20050;-66
2021/01/01 08:05:22;;;;;;;25.77;15.10;;;4.20;79.30;;;;;;4980939;28;20469;-66
2021/01/01 08:07:48;;;;;;;20.00;12.77;;;4.20;79.20;;;;;;4978479;28;20434;-66
2021/01/01 08:10:14;;;;;;;19.95;12.85;;;4.20;79.20;;;;;;4981675;28;20045;-65
2021/01/01 08:12:53;;;;;;;17.95;11.02;;;4.30;79.20;;;;;;4978325;28;20042;-66
2021/01/01 08:15:31;;;;;;;15.25;9.75;;;4.30;79.30;;;;;;4980086;28;20038;-66
2021/01/01 08:18:08;;;;;;;15.80;10.32;;;4.30;79.30;;;;;;4979999;28;20044;-65
2021/01/01 08:20:34;;;;;;;13.43;9.23;;;4.30;79.20;;;;;;4980864;28;20030;-65
2021/01/01 08:23:04;;;;;;;15.98;10.65;;;4.30;79.00;;;;;;4979541;28;20410;-64
2021/01/01 08:25:31;;;;;;;15.10;9.23;;;4.30;78.90;;;;;;4974319;28;20506;-64
2021/01/01 08:27:57;;;;;;;16.15;10.02;;;4.30;78.80;;;;;;4974796;28;20073;-65
2021/01/01 08:30:24;;;;;;;15.02;9.25;;;4.30;78.80;;;;;;4975080;28;20114;-64
2021/01/01 08:32:50;;;;;;;16.30;10.10;;;4.40;78.80;;;;;;4976610;28;20034;-65
2021/01/01 08:35:16;;;;;;;18.10;10.32;;;4.50;78.80;;;;;;4980667;28;20042;-64
2021/01/01 08:37:41;;;;;;;15.38;9.70;;;4.40;78.70;;;;;;4977433;28;20047;-65
2021/01/01 08:40:09;;;;;;;28.95;15.13;;;4.40;78.60;;;;;;4975612;28;20121;-66
2021/01/01 08:42:39;;;;;;;26.38;14.85;;;4.40;78.70;;;;;;4978407;28;20039;-63
2021/01/01 08:45:07;;;;;;;20.75;12.63;;;4.40;78.70;;;;;;4978402;28;20462;-64
2021/01/01 08:47:48;;;;;;;17.48;12.00;;;4.40;78.80;;;;;;4978534;28;20070;-65
2021/01/01 08:50:28;;;;;;;17.23;10.70;;;4.40;78.90;;;;;;4978971;28;20034;-66
2021/01/01 08:53:02;;;;;;;25.60;15.93;;;4.40;78.90;;;;;;4978351;28;20026;-64
2021/01/01 08:55:28;;;;;;;18.95;12.07;;;4.40;78.60;;;;;;4977247;28;20117;-64
2021/01/01 08:58:15;;;;;;;19.00;11.77;;;4.40;78.50;;;;;;4978115;28;20038;-65
2021/01/01 09:00:43;;;;;;;16.33;10.93;;;4.40;78.60;;;;;;4977400;28;20104;-64
2021/01/01 09:03:09;;;;;;;19.70;12.15;;;4.40;78.40;;;;;;4978430;28;20042;-64
2021/01/01 09:05:35;;;;;;;21.55;13.68;;;4.40;78.50;;;;;;4975536;28;20038;-64
2021/01/01 09:08:17;;;;;;;21.83;13.32;;;4.40;78.40;;;;;;4976619;28;20049;-65
2021/01/01 09:10:47;;;;;;;19.27;12.38;;;4.40;78.50;;;;;;4973134;28;20038;-66
2021/01/01 09:13:13;;;;;;;22.80;13.77;;;4.40;78.40;;;;;;4991474;28;20041;-65
2021/01/01 09:15:38;;;;;;;24.05;15.80;;;4.40;78.40;;;;;;4977849;28;20038;-66
2021/01/01 09:18:08;;;;;;;27.08;17.15;;;4.40;78.50;;;;;;4978273;28;20461;-66
2021/01/01 09:20:35;;;;;;;27.77;17.33;;;4.40;78.60;;;;;;4976830;28;20030;-65
2021/01/01 09:23:02;;;;;;;21.27;13.35;;;4.40;78.70;;;;;;4977791;28;20037;-67
2021/01/01 09:25:31;;;;;;;23.25;13.30;;;4.40;78.60;;;;;;4975694;28;20418;-66
2021/01/01 09:27:58;;;;;;;22.17;13.50;;;4.40;78.80;;;;;;4978183;28;20122;-66
2021/01/01 09:30:29;;;;;;;20.80;12.50;;;4.50;78.90;;;;;;4979457;28;20406;-66
2021/01/01 09:32:57;;;;;;;24.92;16.30;;;4.50;78.80;;;;;;4978800;28;20042;-64
2021/01/01 09:35:23;;;;;;;19.75;11.95;;;4.50;78.70;;;;;;4979532;28;20044;-65
2021/01/01 09:37:59;;;;;;;18.05;11.75;;;4.60;78.60;;;;;;4978264;28;20038;-64
2021/01/01 09:40:27;;;;;;;22.83;12.38;;;4.60;78.60;;;;;;4975656;28;20061;-64
2021/01/01 09:42:53;;;;;;;17.80;11.07;;;4.60;78.50;;;;;;4976568;28;20452;-64
2021/01/01 09:45:18;;;;;;;26.90;15.35;;;4.60;78.50;;;;;;4974558;28;20121;-65
2021/01/01 09:47:44;;;;;;;27.20;15.20;;;4.60;78.50;;;;;;4974435;28;20637;-66
2021/01/01 09:50:11;;;;;;;26.58;14.02;;;4.60;78.50;;;;;;4976460;28;20038;-61
2021/01/01 09:52:37;;;;;;;27.98;15.20;;;4.60;78.40;;;;;;4976081;28;20038;-64
2021/01/01 09:55:04;;;;;;;20.05;12.20;;;4.60;78.50;;;;;;4977699;28;20093;-64
2021/01/01 09:57:30;;;;;;;18.98;11.65;;;4.60;78.50;;;;;;4977753;28;20513;-64
2021/01/01 09:59:57;;;;;;;17.17;11.32;;;4.70;78.40;;;;;;4977501;28;20062;-64
2021/01/01 10:02:23;;;;;;;17.33;11.07;;;4.70;78.40;;;;;;4976856;28;20560;-64
2021/01/01 10:04:48;;;;;;;16.38;10.98;;;4.70;78.30;;;;;;4976028;28;20042;-66
2021/01/01 10:07:15;;;;;;;16.42;10.60;;;4.70;78.20;;;;;;4970056;28;20034;-64
2021/01/01 10:09:44;;;;;;;16.42;10.40;;;4.70;78.20;;;;;;4975363;28;20514;-65
2021/01/01 10:12:13;;;;;;;17.65;11.35;;;4.70;78.30;;;;;;4977063;28;20043;-67
2021/01/01 10:14:39;;;;;;;17.83;11.20;;;4.70;78.30;;;;;;4974057;28;20043;-65
2021/01/01 10:17:05;;;;;;;19.35;11.90;;;4.70;78.40;;;;;;4977343;28;20030;-62
2021/01/01 10:19:30;;;;;;;15.93;10.13;;;4.70;78.50;;;;;;4978121;28;20406;-66
2021/01/01 10:21:57;;;;;;;17.90;12.18;;;4.70;78.50;;;;;;4977741;28;20043;-65
2021/01/01 10:24:23;;;;;;;17.55;11.43;;;4.70;78.60;;;;;;4976915;28;20122;-65
2021/01/01 10:26:49;;;;;;;16.52;10.63;;;4.70;78.60;;;;;;4978365;28;20577;-64
2021/01/01 10:29:16;;;;;;;16.85;10.88;;;4.70;79.40;;;;;;4977208;28;20039;-64
2021/01/01 10:31:42;;;;;;;15.13;9.88;;;4.70;78.60;;;;;;4992103;28;20094;-65
2021/01/01 10:34:08;;;;;;;20.05;10.73;;;4.70;78.60;;;;;;4977419;28;20224;-62
2021/01/01 10:36:34;;;;;;;25.65;14.65;;;4.70;78.60;;;;;;4977666;28;20042;-64
2021/01/01 10:39:00;;;;;;;18.33;11.57;;;4.80;78.60;;;;;;4978309;28;20062;-64
2021/01/01 10:41:25;;;;;;;15.98;10.40;;;4.80;78.60;;;;;;4982049;28;20379;-65
2021/01/01 10:43:51;;;;;;;19.05;11.65;;;4.70;78.60;;;;;;4981790;28;20041;-63
2021/01/01 10:46:17;;;;;;;17.02;11.23;;;4.80;78.80;;;;;;4980356;28;20031;-63
2021/01/01 10:48:42;;;;;;;20.80;12.05;;;4.80;78.90;;;;;;4981221;28;20038;-64
2021/01/01 10:51:08;;;;;;;20.70;11.88;;;4.80;79.00;;;;;;4979235;28;20030;-64
2021/01/01 10:53:34;;;;;;;21.92;12.10;;;4.80;79.00;;;;;;4980892;28;20579;-64
2021/01/01 10:55:59;;;;;;;23.70;12.23;;;4.80;79.00;;;;;;4981354;28;20822;-65
2021/01/01 10:58:25;;;;;;;17.65;10.95;;;4.90;79.00;;;;;;4980154;28;20035;-65
2021/01/01 11:00:54;;;;;;;20.40;11.82;;;4.90;79.20;;;;;;4980835;28;20119;-64
2021/01/01 11:03:23;;;;;;;16.25;11.05;;;4.90;79.20;;;;;;4976249;28;20121;-65
2021/01/01 11:05:49;;;;;;;17.40;11.15;;;4.90;79.10;;;;;;4976808;28;20035;-65
2021/01/01 11:08:15;;;;;;;17.48;10.95;;;4.90;79.20;;;;;;4979013;28;20031;-64
2021/01/01 11:10:41;;;;;;;21.30;12.05;;;4.90;79.20;;;;;;4974644;28;20266;-64
2021/01/01 11:13:07;;;;;;;20.05;13.05;;;5.00;79.30;;;;;;4979170;28;20127;-65
2021/01/01 12:22:09;;;;;;;14.07;8.85;;;5.20;79.30;;;;;;4965917;28;20482;-65
2021/01/01 12:27:02;;;;;;;15.23;10.00;;;5.20;80.20;;;;;;4980723;28;20069;-65
2021/01/01 12:29:28;;;;;;;15.00;10.05;;;5.20;79.90;;;;;;4981559;28;20053;-65
2021/01/01 12:31:57;;;;;;;16.67;10.18;;;5.20;80.00;;;;;;4980167;28;20053;-66
2021/01/01 12:34:23;;;;;;;15.57;10.30;;;5.20;80.00;;;;;;4979058;28;20034;-65
2021/01/01 12:36:48;;;;;;;13.85;9.05;;;5.30;79.70;;;;;;4982134;28;21071;-66
2021/01/01 12:39:14;;;;;;;15.52;9.95;;;5.30;79.60;;;;;;4977466;28;20126;-65
2021/01/01 12:41:40;;;;;;;14.05;9.30;;;5.30;79.70;;;;;;4970788;28;20544;-65
2021/01/01 12:44:05;;;;;;;14.13;9.20;;;5.30;79.60;;;;;;4976049;28;20409;-67
2021/01/01 12:46:31;;;;;;;13.35;9.07;;;5.30;79.60;;;;;;4974195;28;20042;-64
2021/01/01 12:48:57;;;;;;;13.93;9.40;;;5.30;79.80;;;;;;4979241;28;20109;-65
2021/01/01 12:51:23;;;;;;;14.57;9.73;;;5.30;79.70;;;;;;4974237;28;20513;-66
2021/01/01 12:53:48;;;;;;;14.68;9.73;;;5.30;79.70;;;;;;4976575;28;20042;-65
2021/01/01 12:56:15;;;;;;;13.75;9.80;;;5.30;79.70;;;;;;4978343;28;20039;-65
2021/01/01 12:58:41;;;;;;;16.35;10.90;;;5.40;79.60;;;;;;4975876;28;20450;-65
2021/01/01 13:01:06;;;;;;;17.27;10.35;;;5.40;79.50;;;;;;4977352;28;20125;-65
2021/01/01 13:03:32;;;;;;;20.20;12.48;;;5.40;79.50;;;;;;4977025;28;20038;-65
2021/01/01 13:05:59;;;;;;;17.33;11.32;;;5.40;79.30;;;;;;4978642;28;20034;-65
2021/01/01 13:08:25;;;;;;;15.95;9.75;;;5.40;79.30;;;;;;4976372;28;20113;-65
2021/01/01 13:10:50;;;;;;;16.38;11.13;;;5.40;79.20;;;;;;4976643;28;20113;-65
2021/01/01 13:13:16;;;;;;;20.08;12.40;;;5.50;79.10;;;;;;4993093;28;20521;-65
2021/01/01 13:15:42;;;;;;;19.20;12.27;;;5.40;79.00;;;;;;4977001;28;20053;-66
2021/01/01 13:18:09;;;;;;;21.35;12.85;;;5.50;78.90;;;;;;4975215;28;20129;-66
2021/01/01 13:20:35;;;;;;;20.67;12.60;;;5.50;78.80;;;;;;4976499;28;20038;-66
2021/01/01 13:23:01;;;;;;;22.67;14.00;;;5.40;78.70;;;;;;4976430;28;20037;-66
2021/01/01 13:25:26;;;;;;;18.92;12.50;;;5.40;78.80;;;;;;4978243;28;20453;-66
2021/01/01 13:27:53;;;;;;;21.35;12.80;;;5.40;78.70;;;;;;4978541;28;20043;-65
2021/01/01 13:30:19;;;;;;;19.40;12.55;;;5.40;78.80;;;;;;4972223;28;20058;-68
2021/01/01 13:32:45;;;;;;;19.25;12.07;;;5.40;78.80;;;;;;4977730;28;20097;-64
2021/01/01 13:35:12;;;;;;;18.95;11.38;;;5.40;78.80;;;;;;4977033;28;20043;-65
2021/01/01 13:37:38;;;;;;;22.48;12.73;;;5.40;78.80;;;;;;4975390;28;20038;-65
2021/01/01 13:40:05;;;;;;;28.02;16.10;;;5.40;78.80;;;;;;4976577;28;20043;-68
2021/01/01 13:42:31;;;;;;;33.35;17.02;;;5.40;78.90;;;;;;4973702;28;20083;-67
2021/01/01 13:44:57;;;;;;;36.80;18.48;;;5.40;78.70;;;;;;4975810;28;20035;-66
2021/01/01 13:47:24;;;;;;;35.15;18.05;;;5.40;78.70;;;;;;4975329;28;20117;-67
2021/01/01 13:49:50;;;;;;;34.08;18.38;;;5.40;78.80;;;;;;4975129;28;20074;-67